KMRY Airport Information

Runway Information
Runway 10L Length 3513 ft width 60 ft
Elevation 198 ft Threshold 0 ft Heading 113
Runway 28R Length 3513 ft Width 60 ft
Elevation 256 ft Threshold 0 ft Heading 293
Runway 10R Length 7616 ft width 150 ft
Elevation 155 ft Threshold 0 ft Heading 113
Runway 28L Length 7616 ft Width 150 ft
Elevation 247 ft Threshold 1000 ft Heading 293
Airport Frequencies
Type A/D Name NORCAL APP Frequency 127.15 MHZ
Type ATIS Name ATIS Frequency 119.25 MHZ
Type CLD Name CLNC DEL Frequency 135.45 MHZ
Type CTAF Name CTAF Frequency 118.4 MHZ
Type GND Name GND Frequency 121.9 MHZ
Type TWR Name TWR Frequency 118.4 MHZ
Type UNIC Name UNICOM Frequency 122.95 MHZ
Airport Navaids
Type NDB Name Munso Frequency 385 KHZ
Airport Weather Information & NOTAM
ADDS - METARS form results

(0642 UTC 22 April 2018)
 
METAR text: KMRY 220554Z AUTO 00000KT 10SM CLR 13/09 A3004 RMK AO2 SLP186 T01330089 10178 20128 58003
Conditions at: KMRY (MONTEREY , CA, US) observed 0554 UTC 22 April 2018
Temperature: 13.3°C (56°F)
Dewpoint: 8.9°C (48°F) [RH = 75%]
Pressure (altimeter): 30.04 inches Hg (1017.4 mb)
[Sea-level pressure: 1018.6 mb]
Winds: calm
Visibility: 10 or more miles (16+ km)
Ceiling: at least 12,000 feet AGL
Clouds: sky clear below 12,000 feet AGL
Weather: automated observation with no human augmentation;
there may or may not be significant weather present at this time